Time,TemperatureF,DewpointF,PressureIn,WindDirection,WindDirectionDegrees,WindSpeedMPH,WindSpeedGustMPH,Humidity,HourlyPrecipIn,Conditions,Clouds,dailyrainin,SoftwareType,DateUTC
2013-04-11 00:00:00,67.0,54.0,29.88,NNW,329,7.0,18.0,65,-99.99,,,-99.99,,2013-04-11 04:00:00,
2013-04-11 00:23:00,67.0,54.0,29.88,NNW,329,7.0,18.0,65,-99.99,,,-99.99,,2013-04-11 04:23:00,
2013-04-11 00:33:00,67.0,54.0,29.88,NNW,329,7.0,18.0,65,-99.99,,,-99.99,,2013-04-11 04:33:00,
2013-04-11 00:43:00,67.0,54.0,29.88,NNW,329,7.0,18.0,65,-99.99,,,-99.99,,2013-04-11 04:43:00,
2013-04-11 00:53:00,67.0,54.0,29.88,NNW,329,7.0,18.0,65,-99.99,,,-99.99,,2013-04-11 04:53:00,
2013-04-11 01:00:00,64.0,56.0,29.85,East,88,6.0,10.0,76,-99.99,,,-99.99,,2013-04-11 05:00:00,
2013-04-11 01:23:00,64.0,56.0,29.85,East,88,6.0,10.0,76,-99.99,,,-99.99,,2013-04-11 05:23:00,
2013-04-11 01:32:00,64.0,56.0,29.85,East,88,6.0,10.0,76,-99.99,,,-99.99,,2013-04-11 05:32:00,
2013-04-11 01:42:00,64.0,56.0,29.85,East,88,6.0,10.0,76,-99.99,,,-99.99,,2013-04-11 05:42:00,
2013-04-11 01:52:00,64.0,56.0,29.85,East,88,6.0,10.0,76,-99.99,,,-99.99,,2013-04-11 05:52:00,
2013-04-11 02:00:00,58.0,52.0,29.85,SE,127,4.0,10.0,81,-99.99,,,-99.99,,2013-04-11 06:00:00,
2013-04-11 02:22:00,58.0,52.0,29.85,SE,127,4.0,10.0,81,-99.99,,,-99.99,,2013-04-11 06:22:00,
2013-04-11 02:32:00,58.0,52.0,29.85,SE,127,4.0,10.0,81,-99.99,,,-99.99,,2013-04-11 06:32:00,
2013-04-11 02:42:00,58.0,52.0,29.85,SE,127,4.0,10.0,81,-99.99,,,-99.99,,2013-04-11 06:42:00,
2013-04-11 02:53:00,58.0,52.0,29.85,SE,127,4.0,10.0,81,-99.99,,,-99.99,,2013-04-11 06:53:00,
2013-04-11 03:00:00,56.0,51.0,29.83,South,190,3.0,7.0,83,-99.99,,,-99.99,,2013-04-11 07:00:00,
2013-04-11 03:22:00,56.0,51.0,29.83,South,190,3.0,7.0,83,-99.99,,,-99.99,,2013-04-11 07:22:00,
2013-04-11 03:32:00,56.0,51.0,29.83,South,190,3.0,7.0,83,-99.99,,,-99.99,,2013-04-11 07:32:00,
2013-04-11 03:43:00,56.0,51.0,29.83,South,190,3.0,7.0,83,-99.99,,,-99.99,,2013-04-11 07:43:00,
2013-04-11 03:52:00,56.0,51.0,29.83,South,190,3.0,7.0,83,-99.99,,,-99.99,,2013-04-11 07:52:00,
2013-04-11 04:00:00,56.0,51.0,29.83,South,191,1.0,7.0,82,-99.99,,,-99.99,,2013-04-11 08:00:00,
2013-04-11 04:22:00,56.0,51.0,29.83,South,191,1.0,7.0,82,-99.99,,,-99.99,,2013-04-11 08:22:00,
2013-04-11 04:33:00,56.0,51.0,29.83,South,191,1.0,7.0,82,-99.99,,,-99.99,,2013-04-11 08:33:00,
2013-04-11 04:43:00,56.0,51.0,29.83,South,191,1.0,7.0,82,-99.99,,,-99.99,,2013-04-11 08:43:00,
2013-04-11 04:52:00,56.0,51.0,29.83,South,191,1.0,7.0,82,-99.99,,,-99.99,,2013-04-11 08:52:00,
2013-04-11 05:00:00,57.0,50.0,29.85,SW,219,0.0,9.0,77,-99.99,,,-99.99,,2013-04-11 09:00:00,
2013-04-11 05:22:00,57.0,50.0,29.85,SW,219,0.0,9.0,77,-99.99,,,-99.99,,2013-04-11 09:22:00,
2013-04-11 05:33:00,57.0,50.0,29.85,SW,219,0.0,9.0,77,-99.99,,,-99.99,,2013-04-11 09:33:00,
2013-04-11 05:43:00,57.0,50.0,29.85,SW,219,0.0,9.0,77,-99.99,,,-99.99,,2013-04-11 09:43:00,
2013-04-11 05:53:00,57.0,50.0,29.85,SW,219,0.0,9.0,77,-99.99,,,-99.99,,2013-04-11 09:53:00,
2013-04-11 06:00:00,61.0,53.0,29.83,SW,234,2.0,9.0,74,-99.99,,,-99.99,,2013-04-11 10:00:00,
2013-04-11 06:23:00,61.0,53.0,29.83,SW,234,2.0,9.0,74,-99.99,,,-99.99,,2013-04-11 10:23:00,
2013-04-11 06:32:00,61.0,53.0,29.83,SW,234,2.0,9.0,74,-99.99,,,-99.99,,2013-04-11 10:32:00,
2013-04-11 06:42:00,61.0,53.0,29.83,SW,234,2.0,9.0,74,-99.99,,,-99.99,,2013-04-11 10:42:00,
2013-04-11 06:52:00,61.0,53.0,29.83,SW,234,2.0,9.0,74,-99.99,,,-99.99,,2013-04-11 10:52:00,
2013-04-11 07:00:00,60.0,53.0,29.85,SW,232,1.0,7.0,78,-99.99,,,-99.99,,2013-04-11 11:00:00,
2013-04-11 07:32:00,60.0,53.0,29.85,SW,232,1.0,7.0,78,-99.99,,,-99.99,,2013-04-11 11:32:00,
2013-04-11 07:43:00,60.0,53.0,29.85,SW,232,1.0,7.0,78,-99.99,,,-99.99,,2013-04-11 11:43:00,
2013-04-11 07:53:00,60.0,53.0,29.85,SW,232,1.0,7.0,78,-99.99,,,-99.99,,2013-04-11 11:53:00,
2013-04-11 08:00:00,63.0,54.0,29.88,WNW,289,4.0,7.0,72,-99.99,,,-99.99,,2013-04-11 12:00:00,
2013-04-11 08:32:00,63.0,54.0,29.88,WNW,289,4.0,7.0,72,-99.99,,,-99.99,,2013-04-11 12:32:00,
2013-04-11 08:43:00,63.0,54.0,29.88,WNW,289,4.0,7.0,72,-99.99,,,-99.99,,2013-04-11 12:43:00,
2013-04-11 08:52:00,63.0,54.0,29.88,WNW,289,4.0,7.0,72,-99.99,,,-99.99,,2013-04-11 12:52:00,
2013-04-11 09:00:00,68.0,54.0,29.85,WSW,239,0.0,7.0,62,-99.99,,,-99.99,,2013-04-11 13:00:00,
2013-04-11 09:23:00,68.0,54.0,29.85,WSW,239,0.0,7.0,62,-99.99,,,-99.99,,2013-04-11 13:23:00,
2013-04-11 09:32:00,68.0,54.0,29.85,WSW,239,0.0,7.0,62,-99.99,,,-99.99,,2013-04-11 13:32:00,
2013-04-11 09:43:00,68.0,54.0,29.85,WSW,239,0.0,7.0,62,-99.99,,,-99.99,,2013-04-11 13:43:00,
2013-04-11 09:54:00,68.0,54.0,29.85,WSW,239,0.0,7.0,62,-99.99,,,-99.99,,2013-04-11 13:54:00,
2013-04-11 10:00:00,75.0,55.0,29.85,SW,224,4.0,7.0,50,-99.99,,,-99.99,,2013-04-11 14:00:00,
2013-04-11 10:22:00,75.0,55.0,29.85,SW,224,4.0,7.0,50,-99.99,,,-99.99,,2013-04-11 14:22:00,
2013-04-11 10:33:00,75.0,55.0,29.85,SW,224,4.0,7.0,50,-99.99,,,-99.99,,2013-04-11 14:33:00,
2013-04-11 10:43:00,75.0,55.0,29.85,SW,224,4.0,7.0,50,-99.99,,,-99.99,,2013-04-11 14:43:00,
2013-04-11 10:53:00,75.0,55.0,29.85,SW,224,4.0,7.0,50,-99.99,,,-99.99,,2013-04-11 14:53:00,
2013-04-11 11:00:00,74.0,55.0,29.85,South,169,0.0,7.0,52,-99.99,,,-99.99,,2013-04-11 15:00:00,
2013-04-11 11:22:00,74.0,55.0,29.85,South,169,0.0,7.0,52,-99.99,,,-99.99,,2013-04-11 15:22:00,
2013-04-11 11:32:00,74.0,55.0,29.85,South,169,0.0,7.0,52,-99.99,,,-99.99,,2013-04-11 15:32:00,
2013-04-11 11:43:00,74.0,55.0,29.85,South,169,0.0,7.0,52,-99.99,,,-99.99,,2013-04-11 15:43:00,
2013-04-11 11:53:00,74.0,55.0,29.85,South,169,0.0,7.0,52,-99.99,,,-99.99,,2013-04-11 15:53:00,
2013-04-11 12:00:00,70.0,54.0,29.88,East,82,4.0,7.0,57,-99.99,,,-99.99,,2013-04-11 16:00:00,
2013-04-11 12:23:00,70.0,54.0,29.88,East,82,4.0,7.0,57,-99.99,,,-99.99,,2013-04-11 16:23:00,
2013-04-11 12:32:00,70.0,54.0,29.88,East,82,4.0,7.0,57,-99.99,,,-99.99,,2013-04-11 16:32:00,
2013-04-11 12:42:00,70.0,54.0,29.88,East,82,4.0,7.0,57,-99.99,,,-99.99,,2013-04-11 16:42:00,
2013-04-11 12:53:00,70.0,54.0,29.88,East,82,4.0,7.0,57,-99.99,,,-99.99,,2013-04-11 16:53:00,
2013-04-11 13:00:00,66.0,56.0,29.88,NNE,23,7.0,14.0,70,-99.99,,,-99.99,,2013-04-11 17:00:00,
2013-04-11 13:33:00,66.0,56.0,29.88,NNE,23,7.0,14.0,70,-99.99,,,-99.99,,2013-04-11 17:33:00,
2013-04-11 13:43:00,66.0,56.0,29.88,NNE,23,7.0,14.0,70,-99.99,,,-99.99,,2013-04-11 17:43:00,
2013-04-11 13:53:00,66.0,56.0,29.88,NNE,23,7.0,14.0,70,-99.99,,,-99.99,,2013-04-11 17:53:00,
2013-04-11 14:00:00,61.0,52.0,29.88,ENE,65,6.0,15.0,72,-99.99,,,-99.99,,2013-04-11 18:00:00,
2013-04-11 14:33:00,61.0,52.0,29.88,ENE,65,6.0,15.0,72,-99.99,,,-99.99,,2013-04-11 18:33:00,
2013-04-11 14:43:00,61.0,52.0,29.88,ENE,65,6.0,15.0,72,-99.99,,,-99.99,,2013-04-11 18:43:00,
2013-04-11 14:53:00,61.0,52.0,29.88,ENE,65,6.0,15.0,72,-99.99,,,-99.99,,2013-04-11 18:53:00,
2013-04-11 15:00:00,53.0,49.0,29.91,ESE,104,5.0,14.0,87,-99.99,,,-99.99,,2013-04-11 19:00:00,
2013-04-11 15:23:00,53.0,49.0,29.91,ESE,104,5.0,14.0,87,-99.99,,,-99.99,,2013-04-11 19:23:00,
2013-04-11 15:33:00,53.0,49.0,29.91,ESE,104,5.0,14.0,87,-99.99,,,-99.99,,2013-04-11 19:33:00,
2013-04-11 15:43:00,53.0,49.0,29.91,ESE,104,5.0,14.0,87,-99.99,,,-99.99,,2013-04-11 19:43:00,
2013-04-11 15:53:00,53.0,49.0,29.91,ESE,104,5.0,14.0,87,-99.99,,,-99.99,,2013-04-11 19:53:00,
2013-04-11 16:00:00,53.0,48.0,29.88,SSW,210,8.0,16.0,85,-99.99,,,-99.99,,2013-04-11 20:00:00,
2013-04-11 16:22:00,53.0,48.0,29.88,SSW,210,8.0,16.0,85,-99.99,,,-99.99,,2013-04-11 20:22:00,
2013-04-11 16:34:00,53.0,48.0,29.88,SSW,210,8.0,16.0,85,-99.99,,,-99.99,,2013-04-11 20:34:00,
2013-04-11 16:43:00,53.0,48.0,29.88,SSW,210,8.0,16.0,85,-99.99,,,-99.99,,2013-04-11 20:43:00,
2013-04-11 16:53:00,53.0,48.0,29.88,SSW,210,8.0,16.0,85,-99.99,,,-99.99,,2013-04-11 20:53:00,
2013-04-11 17:00:00,54.0,49.0,29.88,SW,232,4.0,14.0,83,-99.99,,,-99.99,,2013-04-11 21:00:00,
2013-04-11 17:23:00,54.0,49.0,29.88,SW,232,4.0,14.0,83,-99.99,,,-99.99,,2013-04-11 21:23:00,
2013-04-11 17:33:00,54.0,49.0,29.88,SW,232,4.0,14.0,83,-99.99,,,-99.99,,2013-04-11 21:33:00,
2013-04-11 17:43:00,54.0,49.0,29.88,SW,232,4.0,14.0,83,-99.99,,,-99.99,,2013-04-11 21:43:00,
2013-04-11 17:54:00,54.0,49.0,29.88,SW,232,4.0,14.0,83,-99.99,,,-99.99,,2013-04-11 21:54:00,
2013-04-11 18:00:00,51.0,48.0,29.88,WSW,250,2.0,14.0,87,-99.99,,,-99.99,,2013-04-11 22:00:00,
2013-04-11 18:23:00,51.0,48.0,29.88,WSW,250,2.0,14.0,87,-99.99,,,-99.99,,2013-04-11 22:23:00,
2013-04-11 18:33:00,51.0,48.0,29.88,WSW,250,2.0,14.0,87,-99.99,,,-99.99,,2013-04-11 22:33:00,
2013-04-11 18:44:00,51.0,48.0,29.88,WSW,250,2.0,14.0,87,-99.99,,,-99.99,,2013-04-11 22:44:00,
2013-04-11 18:53:00,51.0,48.0,29.88,WSW,250,2.0,14.0,87,-99.99,,,-99.99,,2013-04-11 22:53:00,
2013-04-11 19:00:00,50.0,47.0,29.91,SW,220,3.0,10.0,88,-99.99,,,-99.99,,2013-04-11 23:00:00,
2013-04-11 19:23:00,50.0,47.0,29.91,SW,220,3.0,10.0,88,-99.99,,,-99.99,,2013-04-11 23:23:00,
2013-04-11 19:33:00,50.0,47.0,29.91,SW,220,3.0,10.0,88,-99.99,,,-99.99,,2013-04-11 23:33:00,
2013-04-11 19:43:00,50.0,47.0,29.91,SW,220,3.0,10.0,88,-99.99,,,-99.99,,2013-04-11 23:43:00,
2013-04-11 19:53:00,50.0,47.0,29.91,SW,220,3.0,10.0,88,-99.99,,,-99.99,,2013-04-11 23:53:00,
2013-04-11 21:00:00,48.0,46.0,29.91,East,91,6.0,16.0,93,-99.99,,,-99.99,,2013-04-12 01:00:00,
2013-04-11 21:23:00,48.0,46.0,29.91,East,91,6.0,16.0,93,-99.99,,,-99.99,,2013-04-12 01:23:00,
2013-04-11 21:33:00,48.0,46.0,29.91,East,91,6.0,16.0,93,-99.99,,,-99.99,,2013-04-12 01:33:00,
2013-04-11 21:42:00,48.0,46.0,29.91,East,91,6.0,16.0,93,-99.99,,,-99.99,,2013-04-12 01:42:00,
2013-04-11 21:52:00,48.0,46.0,29.91,East,91,6.0,16.0,93,-99.99,,,-99.99,,2013-04-12 01:52:00,
2013-04-11 22:00:00,47.0,46.0,29.91,SE,142,6.0,17.0,94,-99.99,,,-99.99,,2013-04-12 02:00:00,
2013-04-11 22:22:00,47.0,46.0,29.91,SE,142,6.0,17.0,94,-99.99,,,-99.99,,2013-04-12 02:22:00,
2013-04-11 22:32:00,47.0,46.0,29.91,SE,142,6.0,17.0,94,-99.99,,,-99.99,,2013-04-12 02:32:00,
2013-04-11 22:42:00,47.0,46.0,29.91,SE,142,6.0,17.0,94,-99.99,,,-99.99,,2013-04-12 02:42:00,
2013-04-11 22:52:00,47.0,46.0,29.91,SE,142,6.0,17.0,94,-99.99,,,-99.99,,2013-04-12 02:52:00,
2013-04-11 23:00:00,47.0,46.0,29.88,ENE,72,4.0,15.0,95,-99.99,,,-99.99,,2013-04-12 03:00:00,
2013-04-11 23:33:00,47.0,46.0,29.88,ENE,72,4.0,15.0,95,-99.99,,,-99.99,,2013-04-12 03:33:00,
2013-04-11 23:43:00,47.0,46.0,29.88,ENE,72,4.0,15.0,95,-99.99,,,-99.99,,2013-04-12 03:43:00,
2013-04-11 23:53:00,47.0,46.0,29.88,ENE,72,4.0,15.0,95,-99.99,,,-99.99,,2013-04-12 03:53:00,